createdAt,value
2022-08-26T00:02:07.155Z,44.80
2022-08-26T00:04:35.199Z,47.20
2022-08-26T00:07:02.842Z,45.55
2022-08-26T00:09:33.352Z,46.85
2022-08-26T00:12:06.744Z,46.10
2022-08-26T00:14:34.199Z,50.53
2022-08-26T00:17:01.861Z,49.08
2022-08-26T00:19:29.456Z,55.63
2022-08-26T00:21:57.215Z,64.53
2022-08-26T00:24:24.782Z,55.58
2022-08-26T00:26:52.984Z,59.15
2022-08-26T00:29:21.204Z,58.75
2022-08-26T00:31:49.112Z,62.22
2022-08-26T00:34:19.377Z,61.17
2022-08-26T00:36:47.864Z,61.55
2022-08-26T00:39:20.206Z,68.72
2022-08-26T00:41:48.018Z,68.07
2022-08-26T00:44:16.213Z,71.60
2022-08-26T00:49:29.547Z,79.95
2022-08-26T00:52:00.926Z,91.50
2022-08-26T00:54:32.579Z,93.53
2022-08-26T00:57:08.689Z,87.97
2022-08-26T00:59:49.129Z,85.35
2022-08-26T01:02:21.266Z,81.45
2022-08-26T01:04:55.808Z,81.63
2022-08-26T01:07:26.226Z,80.60
2022-08-26T01:09:56.331Z,70.25
2022-08-26T01:12:31.783Z,72.15
2022-08-26T01:15:00.213Z,78.78
2022-08-26T01:17:28.006Z,65.32
2022-08-26T01:20:08.704Z,64.70
2022-08-26T01:22:57.798Z,63.72
2022-08-26T01:25:28.718Z,75.32
2022-08-26T01:27:58.464Z,71.30
2022-08-26T01:30:28.044Z,63.67
2022-08-26T01:32:59.348Z,67.68
2022-08-26T01:35:27.210Z,64.47
2022-08-26T01:37:56.426Z,61.75
2022-08-26T01:40:29.705Z,63.33
2022-08-26T01:42:57.645Z,60.50
2022-08-26T01:45:28.941Z,68.03
2022-08-26T01:48:00.151Z,68.72
2022-08-26T01:50:34.679Z,63.78
2022-08-26T01:53:09.504Z,65.28
2022-08-26T01:55:41.660Z,65.45
2022-08-26T01:58:15.356Z,67.95
2022-08-26T02:00:44.143Z,62.30
2022-08-26T02:03:17.712Z,70.65
2022-08-26T02:06:09.410Z,69.28
2022-08-26T02:08:46.560Z,73.30
2022-08-26T02:11:14.862Z,71.32
2022-08-26T02:13:51.416Z,75.40
2022-08-26T02:16:23.879Z,86.53
2022-08-26T02:18:53.337Z,71.55
2022-08-26T02:21:21.303Z,80.25
2022-08-26T02:23:49.155Z,78.18
2022-08-26T02:26:20.192Z,75.68
2022-08-26T02:28:55.678Z,76.30
2022-08-26T02:31:24.057Z,70.15
2022-08-26T02:33:51.999Z,78.53
2022-08-26T02:36:22.052Z,83.90
2022-08-26T02:38:49.697Z,81.70
2022-08-26T02:41:19.598Z,86.57
2022-08-26T02:43:50.534Z,87.35
2022-08-26T02:46:27.733Z,84.80
2022-08-26T02:48:58.583Z,83.72
2022-08-26T02:51:26.087Z,76.25
2022-08-26T02:53:54.229Z,93.13
2022-08-26T02:56:23.633Z,86.18
2022-08-26T02:58:51.258Z,88.88
2022-08-26T03:01:26.796Z,99.28
2022-08-26T03:03:55.423Z,89.30
2022-08-26T03:06:24.591Z,89.05
2022-08-26T03:08:53.314Z,82.15
2022-08-26T03:11:20.774Z,83.55
2022-08-26T03:13:49.811Z,92.20
2022-08-26T03:16:17.757Z,83.55
2022-08-26T03:18:52.102Z,92.70
2022-08-26T03:21:21.014Z,88.22
2022-08-26T03:23:48.690Z,85.28
2022-08-26T03:26:16.974Z,89.22
2022-08-26T03:29:03.093Z,98.75
2022-08-26T03:31:31.172Z,88.63
2022-08-26T03:33:59.896Z,91.63
2022-08-26T03:36:27.905Z,92.47
2022-08-26T03:38:56.883Z,93.03
2022-08-26T03:41:24.475Z,88.47
2022-08-26T03:43:52.450Z,94.50
2022-08-26T03:46:20.606Z,102.45
2022-08-26T03:48:48.606Z,88.18
2022-08-26T03:51:19.043Z,102.78
2022-08-26T03:53:48.089Z,95.97
2022-08-26T03:56:15.906Z,97.88
2022-08-26T03:58:44.611Z,104.57
2022-08-26T04:01:16.214Z,90.63
2022-08-26T04:04:00.596Z,104.45
2022-08-26T04:06:35.304Z,98.55
2022-08-26T04:09:07.479Z,107.10
2022-08-26T04:11:38.473Z,109.57
2022-08-26T04:14:10.339Z,97.82
2022-08-26T04:16:38.898Z,102.60
2022-08-26T04:19:07.260Z,86.65
2022-08-26T04:21:35.444Z,92.65
2022-08-26T04:24:03.967Z,82.43
2022-08-26T04:26:39.518Z,92.00
2022-08-26T04:29:16.079Z,79.85
2022-08-26T04:31:44.850Z,85.85
2022-08-26T04:34:14.238Z,84.20
2022-08-26T04:36:43.344Z,81.47
2022-08-26T04:39:12.542Z,77.15
2022-08-26T04:41:40.483Z,79.05
2022-08-26T04:44:08.339Z,80.88
2022-08-26T04:46:39.800Z,83.72
2022-08-26T04:49:12.153Z,81.13
2022-08-26T04:51:39.954Z,75.53
2022-08-26T04:54:07.546Z,70.28
2022-08-26T04:56:38.622Z,75.30
2022-08-26T04:59:17.000Z,72.88
2022-08-26T05:01:51.358Z,70.75
2022-08-26T05:04:20.078Z,72.25
2022-08-26T05:06:49.661Z,67.78
2022-08-26T05:09:21.211Z,66.28
2022-08-26T05:11:52.076Z,76.57
2022-08-26T05:14:23.382Z,80.10
2022-08-26T05:16:51.874Z,65.35
2022-08-26T05:19:19.746Z,86.03
2022-08-26T05:21:49.258Z,79.47
2022-08-26T05:24:17.351Z,70.40
2022-08-26T05:26:45.703Z,81.63
2022-08-26T05:29:14.072Z,94.38
2022-08-26T05:31:42.178Z,106.03
2022-08-26T05:34:10.150Z,108.65
2022-08-26T05:36:37.996Z,106.45
2022-08-26T05:39:06.681Z,130.45
2022-08-26T05:41:38.773Z,99.05
2022-08-26T05:44:09.869Z,200.02
2022-08-26T05:46:38.950Z,138.23
2022-08-26T05:49:12.534Z,160.73
2022-08-26T05:51:42.101Z,159.50
2022-08-26T05:54:10.416Z,159.82
2022-08-26T05:56:39.345Z,172.88
2022-08-26T05:59:14.380Z,171.48
2022-08-26T06:01:43.501Z,179.05
2022-08-26T06:04:11.655Z,150.15
2022-08-26T06:06:41.633Z,129.30
2022-08-26T06:09:11.324Z,124.43
2022-08-26T06:11:39.654Z,120.95
2022-08-26T06:14:08.185Z,97.45
2022-08-26T06:16:40.876Z,108.40
2022-08-26T06:19:11.583Z,107.07
2022-08-26T06:21:45.652Z,153.90
2022-08-26T06:24:32.903Z,149.73
2022-08-26T06:27:04.875Z,139.65
2022-08-26T06:29:36.042Z,93.07
2022-08-26T06:32:04.715Z,121.53
2022-08-26T06:34:34.511Z,94.65
2022-08-26T06:37:03.274Z,79.38
2022-08-26T06:39:31.618Z,78.18
2022-08-26T06:42:00.985Z,64.32
2022-08-26T06:44:30.672Z,62.45
2022-08-26T06:47:00.101Z,74.55
2022-08-26T06:49:27.909Z,61.30
2022-08-26T06:51:59.452Z,64.38
2022-08-26T06:54:29.089Z,56.65
2022-08-26T06:56:57.194Z,63.65
2022-08-26T06:59:25.467Z,57.15
2022-08-26T07:01:53.498Z,62.35
2022-08-26T07:04:23.081Z,66.50
2022-08-26T07:06:53.521Z,67.15
2022-08-26T07:09:23.314Z,75.13
2022-08-26T07:11:51.836Z,68.75
2022-08-26T07:14:21.427Z,65.75
2022-08-26T07:16:50.619Z,71.20
2022-08-26T07:19:30.353Z,75.20
2022-08-26T07:22:02.138Z,75.13
2022-08-26T07:24:31.074Z,74.03
2022-08-26T07:27:00.460Z,71.43
2022-08-26T07:29:29.218Z,76.00
2022-08-26T07:31:57.582Z,74.03
2022-08-26T07:34:25.499Z,65.03
2022-08-26T07:39:23.745Z,66.53
2022-08-26T07:41:52.479Z,63.05
2022-08-26T07:44:21.006Z,72.65
2022-08-26T07:46:52.364Z,64.03
2022-08-26T07:49:22.925Z,58.33
2022-08-26T07:51:51.530Z,57.60
2022-08-26T07:54:19.779Z,49.45
2022-08-26T07:56:49.380Z,50.85
2022-08-26T07:59:20.125Z,47.70
2022-08-26T08:01:48.928Z,39.03
2022-08-26T08:04:19.413Z,37.08
2022-08-26T08:06:54.227Z,35.58
2022-08-26T08:09:22.541Z,31.38
2022-08-26T08:11:51.384Z,29.92
2022-08-26T08:14:22.211Z,35.03
2022-08-26T08:16:51.118Z,28.27
2022-08-26T08:19:23.937Z,27.75
2022-08-26T08:21:57.443Z,27.58
2022-08-26T08:24:24.963Z,28.48
2022-08-26T08:26:52.556Z,27.88
2022-08-26T08:29:23.748Z,22.67
2022-08-26T08:31:56.759Z,26.80
2022-08-26T08:34:28.617Z,26.80
2022-08-26T08:36:57.260Z,21.90
2022-08-26T08:39:26.337Z,23.05
2022-08-26T08:42:33.303Z,23.70
2022-08-26T08:45:07.199Z,16.00
2022-08-26T08:47:42.857Z,17.77
2022-08-26T08:50:30.445Z,17.13
2022-08-26T08:53:18.925Z,21.73
2022-08-26T08:58:21.051Z,19.65
2022-08-26T09:00:57.440Z,14.10
2022-08-26T09:03:25.097Z,16.33
2022-08-26T09:05:54.614Z,16.52
2022-08-26T09:08:28.387Z,17.95
2022-08-26T09:10:59.568Z,16.35
2022-08-26T09:13:28.215Z,18.35
2022-08-26T09:16:06.398Z,17.38
2022-08-26T09:18:34.279Z,14.35
2022-08-26T09:21:05.978Z,13.32
2022-08-26T09:23:36.331Z,17.98
2022-08-26T09:26:38.860Z,13.48
2022-08-26T09:29:28.034Z,11.32
2022-08-26T09:32:24.183Z,13.40
2022-08-26T09:34:54.816Z,13.18
2022-08-26T09:37:41.177Z,13.38
2022-08-26T09:40:23.058Z,12.68
2022-08-26T09:43:22.854Z,13.65
2022-08-26T09:45:59.059Z,9.90
2022-08-26T09:48:36.837Z,15.60
2022-08-26T09:51:26.998Z,12.00
2022-08-26T09:53:57.799Z,11.50
2022-08-26T09:56:38.346Z,9.80
2022-08-26T09:59:15.304Z,12.43
2022-08-26T10:02:04.516Z,12.00
2022-08-26T10:05:08.963Z,10.57
2022-08-26T10:07:54.924Z,8.15
2022-08-26T10:10:32.897Z,10.52
2022-08-26T10:13:57.492Z,9.25
2022-08-26T10:20:22.411Z,12.70
2022-08-26T10:23:14.902Z,8.95
2022-08-26T10:25:54.102Z,15.18
2022-08-26T10:29:06.321Z,10.68
2022-08-26T10:31:48.994Z,11.30
2022-08-26T10:34:21.259Z,10.90
2022-08-26T10:37:14.111Z,12.18
2022-08-26T10:39:57.076Z,12.02
2022-08-26T10:42:28.949Z,11.90
2022-08-26T10:48:36.035Z,17.38
2022-08-26T10:51:18.755Z,12.95
2022-08-26T10:54:17.899Z,13.07
2022-08-26T10:57:11.327Z,10.98
2022-08-26T10:59:57.144Z,13.45
2022-08-26T11:02:47.090Z,13.45
2022-08-26T11:05:20.040Z,11.52
2022-08-26T11:07:54.835Z,9.38
2022-08-26T11:10:25.176Z,13.63
2022-08-26T11:13:04.053Z,10.90
2022-08-26T11:15:31.951Z,15.32
2022-08-26T11:18:13.257Z,8.07
2022-08-26T11:20:44.862Z,8.35
2022-08-26T11:23:13.514Z,8.25
2022-08-26T11:25:58.926Z,7.15
2022-08-26T11:28:44.251Z,9.18
2022-08-26T11:31:33.556Z,7.38
2022-08-26T11:34:07.159Z,11.63
2022-08-26T11:36:47.781Z,11.57
2022-08-26T11:39:31.020Z,9.18
2022-08-26T11:42:31.506Z,9.77
2022-08-26T11:47:42.069Z,12.05
2022-08-26T11:50:18.653Z,11.18
2022-08-26T11:53:04.365Z,8.68
2022-08-26T11:55:41.785Z,6.68
2022-08-26T11:58:13.071Z,8.50
2022-08-26T12:00:51.643Z,8.82
2022-08-26T12:03:26.639Z,11.02
2022-08-26T12:05:57.292Z,5.97
2022-08-26T12:08:30.575Z,5.47
2022-08-26T12:11:08.604Z,7.10
2022-08-26T12:13:39.165Z,11.77
2022-08-26T12:16:07.411Z,12.05
2022-08-26T12:18:38.597Z,9.80
2022-08-26T12:21:22.705Z,5.95
2022-08-26T12:23:55.538Z,9.85
2022-08-26T12:26:29.419Z,12.57
2022-08-26T12:29:18.034Z,9.10
2022-08-26T12:31:48.807Z,9.18
2022-08-26T12:34:18.513Z,10.15
2022-08-26T12:36:55.609Z,11.55
2022-08-26T12:39:31.203Z,9.77
2022-08-26T12:42:00.942Z,8.98
2022-08-26T12:44:53.934Z,7.60
2022-08-26T12:47:42.507Z,9.57
2022-08-26T12:50:19.400Z,8.05
2022-08-26T12:52:53.203Z,8.27
2022-08-26T12:55:31.576Z,8.32
2022-08-26T12:58:13.876Z,35.67
2022-08-26T13:00:42.960Z,10.38
2022-08-26T13:03:29.219Z,10.10
2022-08-26T13:06:19.025Z,9.05
2022-08-26T13:08:47.555Z,14.13
2022-08-26T13:11:20.930Z,8.65
2022-08-26T13:13:58.019Z,7.35
2022-08-26T13:16:27.162Z,10.07
2022-08-26T13:18:59.794Z,7.03
2022-08-26T13:21:32.058Z,8.57
2022-08-26T13:24:08.965Z,7.00
2022-08-26T13:26:36.460Z,9.70
2022-08-26T13:29:07.291Z,6.35
2022-08-26T13:31:41.028Z,6.85
2022-08-26T13:34:16.148Z,9.60
2022-08-26T13:36:44.932Z,7.53
2022-08-26T13:39:13.575Z,8.73
2022-08-26T13:41:43.844Z,6.03
2022-08-26T13:44:14.566Z,8.70
2022-08-26T13:46:42.297Z,9.52
2022-08-26T13:49:10.848Z,6.00
2022-08-26T13:51:38.587Z,11.18
2022-08-26T13:54:06.554Z,8.20
2022-08-26T13:59:03.163Z,9.63
2022-08-26T14:01:34.515Z,6.97
2022-08-26T14:04:03.155Z,8.75
2022-08-26T14:06:38.158Z,10.30
2022-08-26T14:09:05.683Z,8.40
2022-08-26T14:11:50.534Z,6.50
2022-08-26T14:14:22.172Z,8.23
2022-08-26T14:16:58.874Z,8.20
2022-08-26T14:19:29.973Z,5.63
2022-08-26T14:22:00.633Z,9.93
2022-08-26T14:24:28.930Z,9.93
2022-08-26T14:29:23.816Z,8.93
2022-08-26T14:31:51.425Z,6.45
2022-08-26T14:34:19.020Z,7.20
2022-08-26T14:36:46.482Z,11.05
2022-08-26T14:39:14.620Z,7.45
2022-08-26T14:41:54.137Z,10.25
2022-08-26T14:44:25.693Z,11.77
2022-08-26T14:46:54.596Z,26.67
2022-08-26T14:49:24.278Z,243.07
2022-08-26T14:51:51.840Z,153.43
2022-08-26T14:54:21.201Z,5.47
2022-08-26T14:57:01.220Z,7.35
2022-08-26T14:59:36.594Z,10.60
2022-08-26T15:02:06.678Z,9.40
2022-08-26T15:04:34.904Z,7.00
2022-08-26T15:07:03.611Z,6.70
2022-08-26T15:09:34.317Z,7.10
2022-08-26T15:12:02.600Z,6.28
2022-08-26T15:14:32.923Z,10.82
2022-08-26T15:17:00.811Z,9.23
2022-08-26T15:19:28.421Z,8.15
2022-08-26T15:21:55.958Z,8.82
2022-08-26T15:24:25.235Z,7.78
2022-08-26T15:26:53.540Z,5.97
2022-08-26T15:29:22.245Z,8.00
2022-08-26T15:31:51.011Z,8.73
2022-08-26T15:34:19.559Z,6.45
2022-08-26T15:36:48.280Z,6.63
2022-08-26T15:39:17.177Z,7.82
2022-08-26T15:41:44.861Z,11.27
2022-08-26T15:44:14.137Z,9.30
2022-08-26T15:46:42.167Z,8.13
2022-08-26T15:51:46.926Z,5.72
2022-08-26T15:54:16.732Z,6.55
2022-08-26T15:56:49.101Z,6.72
2022-08-26T16:11:46.305Z,7.72
2022-08-26T16:14:16.720Z,8.20
2022-08-26T16:16:44.401Z,6.72
2022-08-26T16:19:11.956Z,6.15
2022-08-26T16:21:41.247Z,10.23
2022-08-26T16:24:09.292Z,5.45
2022-08-26T16:26:38.415Z,7.55
2022-08-26T16:29:08.696Z,10.82
2022-08-26T16:31:38.290Z,8.15
2022-08-26T16:34:07.812Z,6.57
2022-08-26T16:36:37.559Z,6.68
2022-08-26T16:39:06.453Z,6.28
2022-08-26T16:41:35.077Z,8.38
2022-08-26T16:44:03.315Z,8.80
2022-08-26T16:46:31.309Z,9.35
2022-08-26T16:51:28.397Z,9.60
2022-08-26T16:53:57.432Z,9.48
2022-08-26T16:56:33.734Z,8.13
2022-08-26T16:59:06.158Z,8.40
2022-08-26T17:01:34.309Z,6.60
2022-08-26T17:04:02.006Z,6.95
2022-08-26T17:06:29.752Z,7.05
2022-08-26T17:08:57.459Z,7.40
2022-08-26T17:11:25.148Z,10.75
2022-08-26T17:13:52.692Z,9.10
2022-08-26T17:16:23.328Z,6.47
2022-08-26T17:18:55.876Z,6.70
2022-08-26T17:21:24.264Z,6.68
2022-08-26T17:23:52.484Z,7.35
2022-08-26T17:26:20.775Z,6.53
2022-08-26T17:28:48.805Z,6.32
2022-08-26T17:33:46.722Z,7.03
2022-08-26T17:36:16.962Z,7.15
2022-08-26T17:41:14.264Z,5.55
2022-08-26T17:43:41.878Z,7.70
2022-08-26T17:46:11.490Z,6.15
2022-08-26T17:48:40.966Z,7.13
2022-08-26T17:51:13.863Z,6.00
2022-08-26T17:53:42.399Z,5.78
2022-08-26T17:56:13.133Z,6.40
2022-08-26T17:58:41.232Z,7.97
2022-08-26T18:01:20.322Z,6.13
2022-08-26T18:03:48.637Z,6.28
2022-08-26T18:06:16.357Z,6.82
2022-08-26T18:08:44.910Z,6.70
2022-08-26T18:11:18.538Z,9.88
2022-08-26T18:13:47.822Z,5.80
2022-08-26T18:16:17.513Z,6.25
2022-08-26T18:18:46.510Z,7.85
2022-08-26T18:21:16.304Z,11.48
2022-08-26T18:23:45.707Z,7.50
2022-08-26T18:26:18.486Z,6.97
2022-08-26T18:28:46.402Z,8.43
2022-08-26T18:31:15.374Z,7.43
2022-08-26T18:33:43.175Z,8.10
2022-08-26T18:36:18.464Z,7.47
2022-08-26T18:38:47.444Z,6.30
2022-08-26T18:41:20.888Z,8.82
2022-08-26T18:43:50.477Z,5.00
2022-08-26T18:46:19.379Z,5.57
2022-08-26T18:48:51.096Z,7.13
2022-08-26T18:51:29.575Z,7.25
2022-08-26T18:54:00.240Z,8.70
2022-08-26T18:56:29.172Z,8.43
2022-08-26T18:58:58.294Z,6.95
2022-08-26T19:01:28.288Z,10.20
2022-08-26T19:04:01.663Z,10.20
2022-08-26T19:06:32.939Z,7.65
2022-08-26T19:09:00.860Z,7.03
2022-08-26T19:11:32.568Z,5.63
2022-08-26T19:14:10.228Z,10.15
2022-08-26T19:16:38.748Z,8.50
2022-08-26T19:19:06.481Z,12.73
2022-08-26T19:21:35.844Z,8.90
2022-08-26T19:24:07.183Z,8.52
2022-08-26T19:26:36.199Z,16.60
2022-08-26T19:29:04.488Z,13.43
2022-08-26T19:31:31.991Z,11.07
2022-08-26T19:34:00.129Z,9.25
2022-08-26T19:41:37.303Z,10.25
2022-08-26T19:44:13.079Z,8.45
2022-08-26T19:46:40.885Z,9.02
2022-08-26T19:49:08.530Z,5.95
2022-08-26T19:51:36.817Z,7.85
2022-08-26T19:54:04.909Z,6.85
2022-08-26T19:56:32.556Z,9.50
2022-08-26T19:59:00.127Z,7.68
2022-08-26T20:01:27.848Z,10.23
2022-08-26T20:06:27.882Z,5.25
2022-08-26T20:08:56.232Z,9.10
2022-08-26T20:11:24.736Z,8.23
2022-08-26T20:13:52.285Z,10.68
2022-08-26T20:16:19.949Z,8.45
2022-08-26T20:19:05.969Z,9.95
2022-08-26T20:21:38.138Z,8.65
2022-08-26T20:24:15.425Z,13.70
2022-08-26T20:26:44.467Z,10.95
2022-08-26T20:29:14.347Z,8.35
2022-08-26T20:31:44.643Z,8.60
2022-08-26T20:34:14.279Z,6.53
2022-08-26T20:36:43.340Z,11.00
2022-08-26T20:39:11.691Z,14.95
2022-08-26T20:41:40.440Z,9.48
2022-08-26T20:44:09.371Z,9.00
2022-08-26T20:46:37.222Z,13.45
2022-08-26T20:49:06.018Z,9.20
2022-08-26T20:51:37.265Z,12.00
2022-08-26T20:54:07.055Z,8.50
2022-08-26T20:56:35.660Z,11.15
2022-08-26T20:59:06.792Z,12.70
2022-08-26T21:01:36.736Z,9.73
2022-08-26T21:04:16.792Z,7.70
2022-08-26T21:06:49.004Z,17.17
2022-08-26T21:09:25.491Z,12.00
2022-08-26T21:11:54.756Z,6.03
2022-08-26T21:14:25.681Z,10.30
2022-08-26T21:16:53.816Z,7.80
2022-08-26T21:19:21.494Z,12.50
2022-08-26T21:21:49.169Z,11.15
2022-08-26T21:24:17.928Z,9.27
2022-08-26T21:26:45.819Z,10.45
2022-08-26T21:29:14.181Z,9.35
2022-08-26T21:31:46.169Z,12.65
2022-08-26T21:34:18.953Z,9.07
2022-08-26T21:36:48.259Z,13.30
2022-08-26T21:39:16.799Z,10.60
2022-08-26T21:41:45.783Z,10.77
2022-08-26T21:44:15.205Z,10.25
2022-08-26T21:46:44.078Z,15.93
2022-08-26T21:49:15.600Z,7.65
2022-08-26T21:51:46.075Z,10.68
2022-08-26T21:54:14.274Z,11.35
2022-08-26T21:59:12.499Z,12.00
2022-08-26T22:01:40.191Z,10.60
2022-08-26T22:04:09.140Z,9.95
2022-08-26T22:06:44.024Z,9.88
2022-08-26T22:09:13.028Z,11.82
2022-08-26T22:11:41.349Z,7.40
2022-08-26T22:14:09.364Z,9.25
2022-08-26T22:16:37.036Z,10.70
2022-08-26T22:19:04.698Z,10.90
2022-08-26T22:21:32.605Z,12.32
2022-08-26T22:24:00.158Z,14.88
2022-08-26T22:26:30.283Z,10.55
2022-08-26T22:28:59.639Z,11.00
2022-08-26T22:31:37.577Z,11.48
2022-08-26T22:34:09.123Z,11.80
2022-08-26T22:36:42.973Z,12.73
2022-08-26T22:39:16.944Z,10.02
2022-08-26T22:41:45.259Z,7.57
2022-08-26T22:44:13.025Z,11.48
2022-08-26T22:46:42.006Z,14.75
2022-08-26T22:49:12.475Z,16.20
2022-08-26T22:51:40.093Z,14.07
2022-08-26T22:54:07.935Z,9.00
2022-08-26T22:56:36.003Z,11.55
2022-08-26T22:59:04.415Z,11.88
2022-08-26T23:01:35.687Z,13.40
2022-08-26T23:04:04.720Z,10.35
2022-08-26T23:06:34.800Z,13.00
2022-08-26T23:09:02.408Z,11.30
2022-08-26T23:11:29.926Z,8.32
2022-08-26T23:13:57.587Z,10.82
2022-08-26T23:16:26.390Z,10.27
2022-08-26T23:18:53.971Z,13.25
2022-08-26T23:21:21.767Z,11.25
2022-08-26T23:23:49.777Z,9.23
2022-08-26T23:26:17.834Z,11.35
2022-08-26T23:31:14.330Z,17.92
2022-08-26T23:34:00.396Z,13.55
2022-08-26T23:36:28.639Z,14.20
2022-08-26T23:38:58.294Z,13.02
2022-08-26T23:41:26.065Z,15.32
2022-08-26T23:43:53.763Z,11.27
2022-08-26T23:46:21.289Z,9.55
2022-08-26T23:48:48.831Z,14.07
2022-08-26T23:51:39.234Z,12.60
2022-08-26T23:54:07.144Z,11.40
2022-08-26T23:56:35.884Z,14.15
2022-08-26T23:59:03.519Z,12.90
